Time;durP1;ratioP1;P1;durP2;ratioP2;P2;SDS_P1;SDS_P2;PMS_P1;PMS_P2;Temp;Humidity;BMP_temperature;BMP_pressure;BME280_temperature;BME280_humidity;BME280_pressure;Samples;Min_cycle;Max_cycle;Signal;HPM_P1;HPM_P2
2022/03/22 00:00:55;;;;;;;30.20;14.80;;;10.00;90.30;;;;;;5034047;28;20520;-70
2022/03/22 00:03:24;;;;;;;25.23;13.90;;;9.90;90.90;;;;;;5035076;28;20747;-69
2022/03/22 00:05:50;;;;;;;29.67;16.90;;;9.90;90.90;;;;;;5026583;28;20456;-70
2022/03/22 00:08:15;;;;;;;30.07;17.37;;;9.90;91.00;;;;;;5026423;28;20471;-70
2022/03/22 00:10:41;;;;;;;29.87;16.27;;;9.90;91.00;;;;;;5040025;28;20262;-69
2022/03/22 00:13:07;;;;;;;24.00;14.40;;;9.90;91.00;;;;;;5043629;28;20232;-71
2022/03/22 00:15:33;;;;;;;24.43;15.23;;;9.80;91.00;;;;;;5029429;28;20246;-70
2022/03/22 00:17:59;;;;;;;26.40;16.13;;;9.70;91.00;;;;;;5045977;28;20481;-69
2022/03/22 00:20:27;;;;;;;21.10;13.47;;;9.60;91.00;;;;;;5043332;28;20545;-69
2022/03/22 00:22:54;;;;;;;22.60;13.93;;;9.70;91.20;;;;;;5021677;28;20460;-69
2022/03/22 00:25:20;;;;;;;25.10;15.00;;;9.60;91.10;;;;;;5020479;28;20455;-71
2022/03/22 00:27:51;;;;;;;29.13;15.83;;;9.40;91.20;;;;;;5025907;28;20475;-73
2022/03/22 00:30:29;;;;;;;34.83;15.47;;;9.50;91.00;;;;;;5027423;28;20462;-68
2022/03/22 00:32:56;;;;;;;26.10;13.97;;;9.40;90.90;;;;;;5029451;28;20976;-70
2022/03/22 00:35:23;;;;;;;19.57;13.00;;;9.40;91.10;;;;;;5046678;28;20450;-67
2022/03/22 00:37:51;;;;;;;22.23;13.07;;;9.40;91.00;;;;;;5034181;28;20471;-68
2022/03/22 00:40:18;;;;;;;27.93;15.17;;;9.30;91.20;;;;;;5022082;28;20452;-70
2022/03/22 00:42:46;;;;;;;34.77;16.33;;;9.30;91.20;;;;;;5042191;28;20893;-69
2022/03/22 00:45:18;;;;;;;30.40;15.30;;;9.30;91.00;;;;;;5028564;28;20828;-68
2022/03/22 00:47:49;;;;;;;29.23;14.20;;;9.30;91.10;;;;;;5046431;28;20494;-69
2022/03/22 00:50:17;;;;;;;19.53;11.80;;;9.30;91.10;;;;;;5036417;28;20467;-70
2022/03/22 00:52:43;;;;;;;30.77;13.17;;;9.30;91.10;;;;;;5017761;28;20840;-68
2022/03/22 00:55:12;;;;;;;20.90;11.70;;;9.30;91.20;;;;;;5019952;28;20546;-71
2022/03/22 00:57:39;;;;;;;12.70;10.30;;;9.20;91.20;;;;;;5019432;28;20826;-70
2022/03/22 01:00:08;;;;;;;16.97;9.60;;;9.20;91.00;;;;;;5019497;28;20462;-71
2022/03/22 01:02:35;;;;;;;18.53;11.63;;;9.20;91.00;;;;;;5015304;28;20456;-71
2022/03/22 01:05:07;;;;;;;15.50;10.70;;;9.10;90.90;;;;;;5033976;28;20458;-69
2022/03/22 01:07:34;;;;;;;15.17;10.47;;;9.10;91.00;;;;;;5024376;28;20459;-68
2022/03/22 01:10:02;;;;;;;21.23;11.63;;;9.10;90.90;;;;;;5022543;28;20829;-69
2022/03/22 01:12:29;;;;;;;19.33;9.80;;;9.00;90.90;;;;;;5029759;28;20451;-70
2022/03/22 01:14:55;;;;;;;15.77;9.90;;;9.00;91.00;;;;;;5024658;28;20978;-70
2022/03/22 01:17:21;;;;;;;16.80;10.13;;;9.00;90.90;;;;;;5029185;28;20478;-68
2022/03/22 01:19:47;;;;;;;15.80;10.80;;;8.90;91.00;;;;;;5033928;28;20223;-69
2022/03/22 01:22:15;;;;;;;18.33;11.20;;;8.90;91.00;;;;;;5005568;28;20225;-69
2022/03/22 01:24:42;;;;;;;17.17;10.67;;;8.90;91.00;;;;;;5026160;28;20462;-70
2022/03/22 01:27:08;;;;;;;15.77;10.57;;;8.90;91.00;;;;;;5053722;28;20458;-70
2022/03/22 01:29:34;;;;;;;15.33;10.60;;;8.80;91.40;;;;;;5015710;28;21066;-68
2022/03/22 01:31:59;;;;;;;17.13;10.33;;;8.90;91.10;;;;;;5026471;28;20513;-70
2022/03/22 01:34:26;;;;;;;18.43;10.10;;;8.80;91.00;;;;;;5040059;28;20258;-72
2022/03/22 01:36:51;;;;;;;14.47;10.10;;;8.80;90.90;;;;;;5040282;28;20225;-69
2022/03/22 01:39:17;;;;;;;15.00;9.67;;;8.80;91.00;;;;;;5027054;28;20466;-68
2022/03/22 01:41:43;;;;;;;16.23;10.47;;;8.70;91.20;;;;;;5045603;28;20328;-73
2022/03/22 01:44:09;;;;;;;13.50;9.03;;;8.70;91.10;;;;;;5027928;28;20227;-70
2022/03/22 01:46:36;;;;;;;17.30;9.77;;;8.70;90.80;;;;;;5032791;28;20455;-72
2022/03/22 01:49:02;;;;;;;13.53;9.57;;;8.60;91.10;;;;;;5030530;28;20247;-69
2022/03/22 01:51:32;;;;;;;17.57;11.07;;;8.60;91.00;;;;;;5044113;28;20479;-69
2022/03/22 01:53:59;;;;;;;15.87;9.17;;;8.50;91.10;;;;;;5038975;28;20965;-68
2022/03/22 01:56:25;;;;;;;13.37;9.33;;;8.50;91.10;;;;;;5038224;28;20447;-68
2022/03/22 01:58:51;;;;;;;18.60;9.90;;;8.60;91.20;;;;;;5029863;28;20512;-70
2022/03/22 02:06:53;;;;;;;14.90;9.70;;;8.40;91.00;;;;;;5025128;28;20527;-71
2022/03/22 02:09:18;;;;;;;16.33;10.83;;;8.40;91.00;;;;;;5040720;28;20491;-69
2022/03/22 02:11:44;;;;;;;17.70;10.33;;;8.30;91.00;;;;;;5048500;28;20481;-68
2022/03/22 02:14:10;;;;;;;14.27;9.80;;;8.30;91.00;;;;;;5044586;28;20224;-68
2022/03/22 02:16:36;;;;;;;14.73;9.40;;;8.30;91.00;;;;;;5033467;28;20818;-68
2022/03/22 02:19:04;;;;;;;18.67;10.20;;;8.30;91.00;;;;;;5034050;28;20224;-71
2022/03/22 02:21:35;;;;;;;12.87;9.17;;;8.30;90.90;;;;;;5037339;28;20223;-73
2022/03/22 02:24:00;;;;;;;17.10;10.23;;;8.20;91.00;;;;;;5023710;28;20509;-70
2022/03/22 02:26:27;;;;;;;13.97;9.20;;;8.20;91.00;;;;;;5007205;28;20460;-71
2022/03/22 02:28:54;;;;;;;16.60;8.83;;;8.20;90.90;;;;;;5034911;28;20600;-69
2022/03/22 02:31:22;;;;;;;20.03;9.30;;;8.10;90.90;;;;;;5028443;28;20444;-68
2022/03/22 02:33:48;;;;;;;14.60;9.07;;;8.10;90.80;;;;;;5026074;28;20581;-71
2022/03/22 02:36:14;;;;;;;19.70;10.30;;;8.10;90.90;;;;;;5028506;28;20487;-71
2022/03/22 02:38:40;;;;;;;15.90;9.57;;;8.10;90.80;;;;;;5028929;28;20255;-69
2022/03/22 02:41:06;;;;;;;12.83;8.83;;;8.00;91.00;;;;;;5030671;28;20483;-70
2022/03/22 02:43:33;;;;;;;16.00;10.40;;;8.00;90.60;;;;;;5036648;28;20232;-68
2022/03/22 02:45:58;;;;;;;16.83;9.17;;;7.90;90.90;;;;;;5033939;28;20519;-70
2022/03/22 02:48:24;;;;;;;20.97;11.40;;;7.90;90.90;;;;;;5026579;28;20534;-67
2022/03/22 02:50:51;;;;;;;16.50;10.10;;;7.80;90.90;;;;;;5029883;28;20221;-69
2022/03/22 02:53:17;;;;;;;15.03;9.57;;;7.80;91.10;;;;;;5063334;28;21110;-68
2022/03/22 02:55:43;;;;;;;13.77;9.20;;;7.70;91.00;;;;;;5029083;28;20451;-71
2022/03/22 02:58:09;;;;;;;19.43;9.07;;;7.70;91.00;;;;;;5027656;28;21051;-68
2022/03/22 03:00:37;;;;;;;14.43;9.10;;;7.70;91.00;;;;;;5033325;28;20763;-71
2022/03/22 03:03:06;;;;;;;15.10;8.70;;;7.80;90.90;;;;;;5019485;28;20228;-69
2022/03/22 03:05:33;;;;;;;15.27;9.63;;;7.80;90.90;;;;;;5019100;28;20459;-70
2022/03/22 03:07:59;;;;;;;17.13;8.90;;;7.80;91.00;;;;;;5034083;28;21014;-69
2022/03/22 03:10:24;;;;;;;14.77;9.93;;;7.70;90.70;;;;;;5025827;28;20451;-68
2022/03/22 03:13:00;;;;;;;15.20;9.70;;;7.70;90.80;;;;;;5009409;28;20460;-70
2022/03/22 03:15:26;;;;;;;13.73;8.80;;;7.70;91.00;;;;;;5040885;28;20247;-72
2022/03/22 03:17:52;;;;;;;15.47;9.77;;;7.70;91.10;;;;;;5036398;28;20483;-69
2022/03/22 03:20:18;;;;;;;11.47;8.50;;;7.70;91.10;;;;;;5028160;28;20455;-71
2022/03/22 03:22:44;;;;;;;11.93;8.73;;;7.70;91.00;;;;;;5027749;28;20239;-69
2022/03/22 03:25:09;;;;;;;15.63;9.63;;;7.70;90.90;;;;;;5010163;28;20217;-72
2022/03/22 03:27:36;;;;;;;14.90;8.83;;;7.60;90.90;;;;;;5002493;28;20217;-69
2022/03/22 03:30:04;;;;;;;13.60;8.50;;;7.70;91.00;;;;;;5039316;28;20455;-70
2022/03/22 03:32:32;;;;;;;13.83;9.07;;;7.60;91.00;;;;;;5034864;28;20460;-69
2022/03/22 03:34:57;;;;;;;16.80;9.90;;;7.60;91.00;;;;;;5026918;28;20464;-67
2022/03/22 03:37:24;;;;;;;12.27;8.30;;;7.50;90.80;;;;;;5027359;28;20558;-68
2022/03/22 03:39:52;;;;;;;12.83;9.20;;;7.50;90.80;;;;;;5029987;28;20585;-69
2022/03/22 03:42:18;;;;;;;10.93;8.03;;;7.40;90.90;;;;;;5028009;28;20455;-70
2022/03/22 03:47:28;;;;;;;13.47;8.43;;;7.30;91.10;;;;;;5035854;28;20226;-72
2022/03/22 03:49:57;;;;;;;16.20;8.93;;;7.40;91.00;;;;;;5047172;28;20452;-68
2022/03/22 03:52:27;;;;;;;17.60;8.77;;;7.30;90.90;;;;;;5024526;28;20767;-70
2022/03/22 03:54:54;;;;;;;14.60;8.93;;;7.20;90.90;;;;;;5029916;28;20501;-70
2022/03/22 03:57:20;;;;;;;15.10;8.70;;;7.20;91.00;;;;;;5037473;28;20495;-71
2022/03/22 03:59:47;;;;;;;14.63;8.90;;;7.20;91.00;;;;;;5023528;28;20479;-70
2022/03/22 04:02:13;;;;;;;16.53;8.50;;;7.20;90.90;;;;;;5026648;28;20974;-72
2022/03/22 04:04:41;;;;;;;12.40;7.77;;;7.20;91.00;;;;;;5025956;28;20972;-69
2022/03/22 04:07:10;;;;;;;16.10;9.17;;;7.20;91.20;;;;;;5032623;28;20449;-70
2022/03/22 04:09:37;;;;;;;15.60;8.90;;;7.20;91.30;;;;;;5012644;28;20524;-71
2022/03/22 04:12:04;;;;;;;15.73;10.00;;;7.20;91.10;;;;;;5024123;28;20458;-72
2022/03/22 04:14:29;;;;;;;14.67;8.57;;;7.20;91.10;;;;;;5025788;28;20796;-69
2022/03/22 04:16:56;;;;;;;12.90;8.00;;;7.10;90.90;;;;;;5026653;28;20482;-68
2022/03/22 04:19:22;;;;;;;13.23;9.70;;;7.10;90.80;;;;;;5030928;28;20216;-66
2022/03/22 04:21:48;;;;;;;20.10;8.47;;;7.10;90.70;;;;;;5017189;28;20444;-70
2022/03/22 04:24:14;;;;;;;13.17;8.40;;;7.00;90.90;;;;;;5027312;28;20553;-68
2022/03/22 04:26:42;;;;;;;14.87;8.63;;;7.00;90.90;;;;;;5025976;28;20286;-70
2022/03/22 04:34:39;;;;;;;16.40;8.53;;;6.90;91.10;;;;;;5021467;28;20456;-70
2022/03/22 04:37:06;;;;;;;10.60;7.50;;;6.90;91.10;;;;;;5046566;28;20852;-71
2022/03/22 04:39:33;;;;;;;18.67;9.83;;;6.90;91.00;;;;;;5026318;28;20455;-68
2022/03/22 04:42:00;;;;;;;14.00;8.50;;;6.90;90.90;;;;;;5013465;28;20460;-71
2022/03/22 04:44:29;;;;;;;15.30;9.67;;;6.80;91.00;;;;;;5027696;28;20467;-69
2022/03/22 04:46:56;;;;;;;16.00;9.10;;;6.80;91.10;;;;;;5037984;28;20462;-68
2022/03/22 04:49:22;;;;;;;16.43;9.60;;;6.70;91.30;;;;;;5040078;28;20464;-67
2022/03/22 04:57:28;;;;;;;14.83;9.07;;;6.70;91.20;;;;;;5037098;28;20868;-73
2022/03/22 04:59:54;;;;;;;16.40;9.00;;;6.70;91.00;;;;;;5045826;28;20459;-70
2022/03/22 05:02:20;;;;;;;12.80;8.37;;;6.70;91.00;;;;;;5019843;28;20223;-70
2022/03/22 05:04:46;;;;;;;10.87;8.03;;;6.60;91.00;;;;;;5033625;28;20464;-68
2022/03/22 05:07:12;;;;;;;12.37;8.03;;;6.60;91.10;;;;;;5022699;28;20542;-73
2022/03/22 05:09:38;;;;;;;16.73;8.90;;;6.60;91.20;;;;;;5026650;28;20228;-68
2022/03/22 05:12:04;;;;;;;22.97;10.17;;;6.60;91.10;;;;;;5038034;28;20227;-69
2022/03/22 05:14:32;;;;;;;15.30;8.83;;;6.60;91.10;;;;;;5028584;28;20513;-69
2022/03/22 05:16:58;;;;;;;16.13;9.33;;;6.60;91.10;;;;;;5035520;28;20466;-69
2022/03/22 05:19:26;;;;;;;15.07;9.00;;;6.60;91.20;;;;;;5016739;28;20459;-69
2022/03/22 05:21:52;;;;;;;11.20;7.07;;;6.60;91.20;;;;;;5030087;28;20508;-67
2022/03/22 05:24:19;;;;;;;13.77;8.40;;;6.50;91.10;;;;;;5016906;28;20887;-71
2022/03/22 05:26:45;;;;;;;14.50;8.83;;;6.40;91.10;;;;;;5037266;28;20217;-71
2022/03/22 05:29:13;;;;;;;9.77;7.37;;;6.40;91.20;;;;;;5029393;28;20459;-68
2022/03/22 05:31:39;;;;;;;12.80;8.33;;;6.40;91.30;;;;;;5027522;28;20530;-71
2022/03/22 05:34:05;;;;;;;14.60;8.60;;;6.50;91.30;;;;;;5030745;28;20452;-68
2022/03/22 05:36:31;;;;;;;15.10;8.63;;;6.50;91.20;;;;;;5026919;28;20463;-68
2022/03/22 05:38:57;;;;;;;13.50;7.97;;;6.40;91.10;;;;;;5046673;28;20459;-69
2022/03/22 05:41:23;;;;;;;12.93;9.40;;;6.40;91.20;;;;;;5033995;28;20804;-68
2022/03/22 05:43:49;;;;;;;13.43;8.37;;;6.30;91.10;;;;;;5032322;28;20252;-69
2022/03/22 05:46:17;;;;;;;11.47;8.73;;;6.30;91.20;;;;;;5034061;28;20465;-71
2022/03/22 05:48:49;;;;;;;13.60;9.73;;;6.30;91.30;;;;;;5027610;28;20985;-72
2022/03/22 05:51:17;;;;;;;16.80;11.20;;;6.30;91.20;;;;;;5009162;28;20510;-73
2022/03/22 05:53:44;;;;;;;15.77;9.70;;;6.30;91.20;;;;;;5028731;28;20471;-69
2022/03/22 05:56:10;;;;;;;16.50;10.33;;;6.30;91.30;;;;;;5032211;28;20470;-69
2022/03/22 05:58:36;;;;;;;16.93;10.63;;;6.20;91.30;;;;;;5007080;28;20455;-72
2022/03/22 06:01:02;;;;;;;16.97;10.47;;;6.20;91.10;;;;;;5031144;28;20220;-69
2022/03/22 06:03:28;;;;;;;18.70;9.40;;;6.20;91.20;;;;;;5028303;28;20220;-74
2022/03/22 06:05:53;;;;;;;14.33;10.17;;;6.20;91.40;;;;;;5039304;28;20224;-69
2022/03/22 06:08:20;;;;;;;14.90;9.73;;;6.20;91.40;;;;;;5029841;28;20221;-68
2022/03/22 06:10:46;;;;;;;15.27;10.00;;;6.20;91.40;;;;;;5001698;28;20212;-73
2022/03/22 06:13:11;;;;;;;15.90;9.67;;;6.20;91.50;;;;;;5034851;28;20528;-67
2022/03/22 06:15:38;;;;;;;12.80;8.10;;;6.20;91.50;;;;;;5033671;28;20470;-71
2022/03/22 06:18:06;;;;;;;17.50;9.20;;;6.20;91.50;;;;;;5015481;28;20236;-70
2022/03/22 06:20:41;;;;;;;13.20;8.80;;;6.20;91.60;;;;;;5043907;28;20459;-69
2022/03/22 06:23:13;;;;;;;15.77;8.47;;;6.30;92.00;;;;;;5027630;28;20466;-69
2022/03/22 06:25:40;;;;;;;14.00;8.93;;;6.30;91.80;;;;;;5016163;28;20987;-68
2022/03/22 06:28:09;;;;;;;12.90;9.03;;;6.30;91.90;;;;;;5025482;28;20460;-73
2022/03/22 06:30:35;;;;;;;17.60;9.90;;;6.30;91.90;;;;;;5041071;28;20504;-72
2022/03/22 06:33:08;;;;;;;29.23;17.57;;;6.30;91.90;;;;;;5022495;28;20529;-69
2022/03/22 06:35:34;;;;;;;25.13;19.50;;;6.30;91.90;;;;;;5040789;28;20488;-69
2022/03/22 06:38:01;;;;;;;25.33;17.53;;;6.30;92.00;;;;;;5015741;28;20500;-71
2022/03/22 06:40:29;;;;;;;23.90;15.07;;;6.30;92.10;;;;;;5027722;28;20228;-72
2022/03/22 06:42:58;;;;;;;35.70;23.63;;;6.30;92.10;;;;;;5018125;28;20463;-69
2022/03/22 06:45:25;;;;;;;57.13;29.57;;;6.30;92.10;;;;;;5029770;28;20451;-72
2022/03/22 06:47:51;;;;;;;43.50;22.87;;;6.30;92.20;;;;;;5030720;28;20539;-70
2022/03/22 06:50:18;;;;;;;33.30;19.03;;;6.30;92.20;;;;;;5015197;28;20824;-71
2022/03/22 06:52:45;;;;;;;35.67;21.40;;;6.30;92.30;;;;;;5036741;28;20545;-69
2022/03/22 06:55:12;;;;;;;28.60;18.10;;;6.40;92.40;;;;;;5033338;28;21046;-73
2022/03/22 06:57:39;;;;;;;28.13;16.20;;;6.40;92.50;;;;;;5034298;28;20898;-73
2022/03/22 07:00:11;;;;;;;23.47;15.30;;;6.40;92.50;;;;;;5029793;28;20461;-71
2022/03/22 07:02:41;;;;;;;23.30;13.87;;;6.40;92.50;;;;;;5031546;28;20468;-70
2022/03/22 07:05:08;;;;;;;26.50;12.77;;;6.50;92.60;;;;;;5039821;28;20454;-69
2022/03/22 07:07:35;;;;;;;20.10;13.70;;;6.50;92.70;;;;;;5038017;28;20476;-71
2022/03/22 07:10:02;;;;;;;23.77;11.50;;;6.50;92.70;;;;;;5030964;28;20554;-70
2022/03/22 07:12:28;;;;;;;14.97;9.20;;;6.60;92.90;;;;;;5032838;28;20447;-70
2022/03/22 07:14:54;;;;;;;15.57;9.90;;;6.60;93.00;;;;;;5043733;28;20535;-70
2022/03/22 07:17:20;;;;;;;14.23;10.00;;;6.60;92.90;;;;;;5032082;28;20894;-68
2022/03/22 07:19:47;;;;;;;13.73;9.90;;;6.70;93.30;;;;;;5012561;28;20842;-72
2022/03/22 07:22:12;;;;;;;12.23;8.77;;;6.70;93.30;;;;;;5030328;28;20451;-70
2022/03/22 07:24:38;;;;;;;12.20;8.17;;;6.80;93.50;;;;;;5024950;28;20511;-71
2022/03/22 07:27:04;;;;;;;14.80;9.30;;;6.80;93.50;;;;;;5024823;28;20230;-70
2022/03/22 07:29:31;;;;;;;11.80;8.00;;;6.90;93.80;;;;;;5037074;28;20302;-68
2022/03/22 07:31:58;;;;;;;12.67;9.00;;;6.90;93.70;;;;;;5019491;28;20463;-71
2022/03/22 07:34:24;;;;;;;15.53;9.33;;;7.00;93.80;;;;;;5029147;28;20463;-68
2022/03/22 07:36:52;;;;;;;23.10;9.00;;;7.10;93.90;;;;;;5029368;28;20453;-68
2022/03/22 07:39:19;;;;;;;15.63;9.27;;;7.20;94.10;;;;;;5041936;28;20461;-70
2022/03/22 07:41:46;;;;;;;13.00;8.77;;;7.20;94.40;;;;;;5033091;28;20461;-72
2022/03/22 07:44:12;;;;;;;16.90;9.10;;;7.30;94.10;;;;;;5027990;28;20530;-70
2022/03/22 07:46:43;;;;;;;10.57;7.43;;;7.30;94.10;;;;;;5030303;28;20893;-72
2022/03/22 07:54:39;;;;;;;11.47;8.00;;;7.60;94.50;;;;;;5031168;28;20550;-69
2022/03/22 07:57:07;;;;;;;14.87;8.63;;;7.70;94.30;;;;;;5032366;28;20917;-71
2022/03/22 07:59:32;;;;;;;13.80;9.10;;;7.80;94.00;;;;;;5014075;28;20444;-70
2022/03/22 08:01:58;;;;;;;13.37;9.23;;;7.80;94.20;;;;;;5014791;28;20890;-71
2022/03/22 08:04:24;;;;;;;9.10;7.40;;;7.90;94.20;;;;;;5022865;28;20230;-70
2022/03/22 08:06:49;;;;;;;14.70;9.40;;;8.00;94.30;;;;;;5022701;28;20215;-70
2022/03/22 08:09:15;;;;;;;16.57;10.20;;;8.00;94.30;;;;;;5025604;28;20216;-70
2022/03/22 08:11:41;;;;;;;15.30;9.00;;;8.10;94.00;;;;;;5031659;28;20227;-72
2022/03/22 08:14:08;;;;;;;17.53;11.00;;;8.20;94.10;;;;;;5029939;28;20219;-70
2022/03/22 08:16:35;;;;;;;16.77;10.03;;;8.20;94.50;;;;;;5028880;28;20832;-73
2022/03/22 08:19:00;;;;;;;12.63;8.60;;;8.30;94.50;;;;;;5022982;28;20462;-71
2022/03/22 08:21:26;;;;;;;19.37;10.00;;;8.40;94.30;;;;;;5010625;28;20475;-72
2022/03/22 08:23:52;;;;;;;13.83;9.17;;;8.50;94.10;;;;;;5022655;28;20228;-70
2022/03/22 08:26:17;;;;;;;17.90;9.87;;;8.60;93.40;;;;;;5023344;28;20212;-73
2022/03/22 08:28:43;;;;;;;17.50;10.57;;;8.70;93.30;;;;;;5031727;28;20263;-72
2022/03/22 08:31:11;;;;;;;13.13;8.33;;;8.80;93.30;;;;;;5027214;28;20217;-69
2022/03/22 08:33:37;;;;;;;14.10;9.80;;;8.90;93.00;;;;;;5024720;28;20272;-69
2022/03/22 08:36:03;;;;;;;11.23;7.80;;;9.00;92.90;;;;;;5026415;28;20460;-74
2022/03/22 08:38:29;;;;;;;28.40;10.60;;;9.20;92.90;;;;;;5031407;28;20234;-71
2022/03/22 08:40:56;;;;;;;10.80;7.70;;;9.30;92.30;;;;;;5030192;28;20471;-72
2022/03/22 08:43:25;;;;;;;13.37;8.67;;;9.40;92.10;;;;;;5032265;28;20224;-70
2022/03/22 08:45:51;;;;;;;14.43;9.50;;;9.40;92.00;;;;;;5031514;28;20470;-73
2022/03/22 08:48:17;;;;;;;20.70;10.67;;;9.50;91.80;;;;;;5027561;28;20463;-70
2022/03/22 08:50:45;;;;;;;16.80;9.70;;;9.50;91.70;;;;;;5032419;28;20961;-72
2022/03/22 08:53:12;;;;;;;15.30;10.37;;;9.60;91.40;;;;;;5022004;28;20225;-74
2022/03/22 08:55:38;;;;;;;16.20;10.77;;;9.70;91.30;;;;;;5036602;28;20466;-69
2022/03/22 08:58:05;;;;;;;15.40;9.90;;;9.80;91.20;;;;;;5033233;28;20467;-69
2022/03/22 09:00:34;;;;;;;13.60;9.93;;;9.90;91.40;;;;;;5017199;28;20763;-69
2022/03/22 09:03:02;;;;;;;16.33;9.47;;;9.90;91.50;;;;;;5034199;28;20591;-70
2022/03/22 09:08:12;;;;;;;15.00;9.80;;;10.10;90.00;;;;;;5036821;28;20473;-71
2022/03/22 09:10:38;;;;;;;14.60;10.23;;;10.10;90.30;;;;;;5027745;28;20467;-70
2022/03/22 09:13:06;;;;;;;16.53;9.63;;;10.20;90.40;;;;;;5017410;28;20476;-75
2022/03/22 09:15:33;;;;;;;11.43;9.17;;;10.20;90.70;;;;;;5037827;28;20239;-69
2022/03/22 09:17:59;;;;;;;15.20;10.07;;;10.30;90.40;;;;;;5031838;28;20467;-68
2022/03/22 09:20:25;;;;;;;12.93;9.47;;;10.50;90.20;;;;;;5027403;28;20514;-68
2022/03/22 09:22:52;;;;;;;15.13;9.70;;;10.60;90.40;;;;;;5035156;28;20212;-69
2022/03/22 09:25:21;;;;;;;18.67;10.80;;;10.60;89.40;;;;;;5028924;28;20458;-72
2022/03/22 09:27:47;;;;;;;13.90;9.40;;;10.70;90.20;;;;;;5027440;28;20547;-71
2022/03/22 09:30:13;;;;;;;13.20;9.93;;;10.80;90.00;;;;;;5028710;28;20953;-71
2022/03/22 09:32:42;;;;;;;16.13;10.20;;;10.80;89.50;;;;;;5019634;28;20217;-74
2022/03/22 09:35:10;;;;;;;13.60;10.20;;;10.80;89.00;;;;;;5028977;28;20454;-69
2022/03/22 09:37:41;;;;;;;12.90;9.53;;;10.80;88.20;;;;;;5027219;28;20483;-69
2022/03/22 09:40:09;;;;;;;13.90;10.17;;;10.90;88.30;;;;;;5045716;28;20463;-73
2022/03/22 09:42:38;;;;;;;13.77;9.37;;;11.00;88.40;;;;;;5027721;28;20459;-71
2022/03/22 09:45:08;;;;;;;14.83;10.67;;;11.10;88.10;;;;;;5026804;28;20464;-72
2022/03/22 09:47:35;;;;;;;13.67;9.70;;;11.20;87.00;;;;;;5019809;28;21050;-69
2022/03/22 09:50:02;;;;;;;21.17;9.57;;;11.30;87.90;;;;;;5035118;28;20458;-70
2022/03/22 09:52:29;;;;;;;13.13;9.80;;;11.30;87.30;;;;;;5028626;28;20705;-74
2022/03/22 09:54:54;;;;;;;12.50;10.03;;;11.50;87.70;;;;;;5025136;28;20538;-71
2022/03/22 09:57:20;;;;;;;14.10;10.80;;;11.50;88.10;;;;;;5024818;28;21014;-70
2022/03/22 09:59:46;;;;;;;14.13;9.87;;;11.50;86.90;;;;;;5031151;28;20748;-74
2022/03/22 10:02:11;;;;;;;15.73;10.27;;;11.50;87.10;;;;;;5043461;28;20247;-71
2022/03/22 10:04:43;;;;;;;15.70;9.67;;;11.60;87.80;;;;;;5024392;28;20240;-74
2022/03/22 10:07:17;;;;;;;15.40;9.20;;;11.70;88.00;;;;;;5018214;28;20692;-71
2022/03/22 10:09:51;;;;;;;15.07;9.90;;;11.80;87.40;;;;;;5047434;28;20487;-69
2022/03/22 10:12:31;;;;;;;13.87;9.60;;;11.90;86.40;;;;;;5016696;28;20984;-71
2022/03/22 10:15:11;;;;;;;13.30;10.00;;;12.00;86.20;;;;;;5026782;28;20629;-74
2022/03/22 10:17:37;;;;;;;16.83;9.87;;;12.10;87.50;;;;;;5035155;28;20882;-71
2022/03/22 10:20:05;;;;;;;15.80;10.40;;;12.20;87.20;;;;;;5042092;28;20453;-71
2022/03/22 10:22:32;;;;;;;14.77;10.40;;;12.30;86.40;;;;;;5033078;28;20462;-69
2022/03/22 10:25:00;;;;;;;13.10;9.87;;;12.30;85.80;;;;;;5016604;28;20444;-74
2022/03/22 10:27:27;;;;;;;15.20;10.10;;;12.30;84.10;;;;;;5028205;28;21042;-71
2022/03/22 10:29:55;;;;;;;12.83;8.77;;;12.30;84.40;;;;;;5021573;28;20935;-70
2022/03/22 10:32:35;;;;;;;14.33;10.23;;;12.40;85.60;;;;;;5015449;28;20458;-71
2022/03/22 10:35:22;;;;;;;15.17;9.80;;;12.50;85.00;;;;;;5035612;28;20454;-71
2022/03/22 10:37:56;;;;;;;14.03;9.93;;;12.60;84.00;;;;;;5032709;28;20466;-70
2022/03/22 10:40:22;;;;;;;12.20;9.90;;;12.60;85.10;;;;;;5044177;28;20940;-68
2022/03/22 10:42:49;;;;;;;15.67;10.50;;;12.70;85.80;;;;;;5037101;28;20553;-73
2022/03/22 10:45:15;;;;;;;14.20;9.20;;;12.80;84.10;;;;;;5024836;28;20219;-67
2022/03/22 10:47:41;;;;;;;11.40;9.60;;;12.90;84.70;;;;;;5039217;28;20459;-70
2022/03/22 10:50:08;;;;;;;14.47;10.80;;;12.90;83.40;;;;;;5033866;28;20311;-70
2022/03/22 10:52:37;;;;;;;14.40;10.53;;;13.00;84.20;;;;;;5036922;28;20477;-70
2022/03/22 10:55:03;;;;;;;13.17;9.90;;;13.10;84.20;;;;;;5039109;28;20459;-73
2022/03/22 10:57:32;;;;;;;12.93;10.10;;;13.10;83.20;;;;;;5037736;28;20490;-71
2022/03/22 11:00:07;;;;;;;16.80;11.90;;;13.20;84.30;;;;;;5028040;28;20531;-69
2022/03/22 11:02:36;;;;;;;13.87;10.83;;;13.20;83.80;;;;;;5031652;28;20830;-72
2022/03/22 11:05:06;;;;;;;23.50;11.97;;;13.20;83.40;;;;;;5023589;28;20442;-72
2022/03/22 11:07:34;;;;;;;15.77;10.70;;;13.30;83.90;;;;;;5029333;28;20459;-70
2022/03/22 11:10:01;;;;;;;17.20;10.30;;;13.40;84.10;;;;;;5038604;28;20466;-74
2022/03/22 11:12:27;;;;;;;17.17;11.20;;;13.60;84.30;;;;;;5025996;28;20463;-74
2022/03/22 11:14:58;;;;;;;13.37;10.77;;;13.50;84.00;;;;;;5026960;28;20560;-73
2022/03/22 11:17:27;;;;;;;15.70;10.53;;;13.60;84.70;;;;;;5025330;28;20482;-74
2022/03/22 11:19:55;;;;;;;13.50;9.97;;;14.10;83.80;;;;;;5025802;28;20451;-72
2022/03/22 11:22:22;;;;;;;18.80;11.77;;;14.30;84.40;;;;;;5028857;28;20529;-72
2022/03/22 11:24:48;;;;;;;15.13;10.17;;;14.40;84.50;;;;;;5027491;28;20463;-71
2022/03/22 11:27:14;;;;;;;16.23;10.97;;;14.50;84.20;;;;;;5033203;28;20532;-71
2022/03/22 11:29:41;;;;;;;14.27;10.53;;;14.50;83.20;;;;;;5031999;28;20216;-73
2022/03/22 11:34:57;;;;;;;16.20;10.80;;;14.40;82.80;;;;;;5028829;28;20520;-69
2022/03/22 11:37:30;;;;;;;12.60;9.50;;;14.40;84.00;;;;;;5032905;28;20575;-72
2022/03/22 11:42:52;;;;;;;13.50;9.47;;;14.90;82.10;;;;;;5028600;28;20588;-70
2022/03/22 11:45:19;;;;;;;16.53;10.70;;;15.00;84.30;;;;;;5034882;28;20451;-71
2022/03/22 11:47:49;;;;;;;14.03;9.50;;;15.20;82.90;;;;;;5030031;28;20462;-71
2022/03/22 11:50:17;;;;;;;14.97;10.07;;;15.40;79.80;;;;;;5035568;28;20859;-73
2022/03/22 11:52:45;;;;;;;17.53;10.43;;;15.60;79.70;;;;;;5028749;28;20454;-72
2022/03/22 11:55:39;;;;;;;13.47;9.50;;;15.70;80.10;;;;;;5032989;28;20566;-71
2022/03/22 11:58:08;;;;;;;10.20;8.60;;;15.70;82.00;;;;;;5018059;28;20465;-67
2022/03/22 12:00:58;;;;;;;13.30;10.07;;;15.80;82.90;;;;;;5030323;28;20464;-69
2022/03/22 12:03:30;;;;;;;14.00;9.87;;;16.10;79.00;;;;;;5021358;28;20470;-70
2022/03/22 12:05:58;;;;;;;12.17;9.43;;;16.10;80.20;;;;;;5047736;28;20871;-69
2022/03/22 12:08:25;;;;;;;10.60;8.73;;;16.10;80.80;;;;;;5034694;28;20984;-70
2022/03/22 12:10:53;;;;;;;14.40;10.20;;;16.20;79.40;;;;;;5027380;28;20466;-69
2022/03/22 12:13:19;;;;;;;10.27;9.00;;;16.30;78.00;;;;;;5026247;28;20455;-68
2022/03/22 12:15:47;;;;;;;14.10;10.50;;;16.40;78.70;;;;;;5027862;28;20493;-71
2022/03/22 12:18:13;;;;;;;12.10;9.37;;;16.50;78.10;;;;;;5012163;28;20467;-68
2022/03/22 12:20:42;;;;;;;14.13;10.60;;;16.70;77.50;;;;;;5015554;28;20494;-69
2022/03/22 12:23:08;;;;;;;16.60;11.37;;;16.70;76.50;;;;;;5030199;28;20981;-69
2022/03/22 12:25:35;;;;;;;13.33;10.97;;;16.60;75.80;;;;;;5023302;28;20519;-70
2022/03/22 12:28:08;;;;;;;15.33;10.90;;;16.50;76.60;;;;;;5026167;28;21064;-71
2022/03/22 12:30:39;;;;;;;10.83;9.63;;;16.50;77.50;;;;;;5034522;28;20822;-75
2022/03/22 12:33:07;;;;;;;13.43;10.87;;;16.60;77.30;;;;;;5016758;28;20455;-72
2022/03/22 12:35:34;;;;;;;12.60;10.63;;;16.80;77.70;;;;;;5025455;28;20453;-73
2022/03/22 12:38:00;;;;;;;13.80;10.40;;;16.70;75.50;;;;;;5026059;28;20473;-72
2022/03/22 12:40:27;;;;;;;13.00;10.90;;;16.60;74.50;;;;;;5023402;28;20549;-73
2022/03/22 12:42:55;;;;;;;14.40;9.43;;;16.50;77.60;;;;;;5033135;28;20481;-70
2022/03/22 12:45:22;;;;;;;12.23;9.27;;;16.50;77.60;;;;;;5022513;28;20876;-73
2022/03/22 12:47:49;;;;;;;14.27;10.00;;;16.70;76.50;;;;;;5029615;28;20500;-70
2022/03/22 12:50:16;;;;;;;13.10;11.07;;;16.80;76.00;;;;;;5032153;28;20454;-68
2022/03/22 12:52:42;;;;;;;15.40;11.20;;;16.70;74.70;;;;;;5025787;28;20487;-67
2022/03/22 12:55:12;;;;;;;16.00;10.43;;;16.50;74.40;;;;;;5018564;28;20465;-71
2022/03/22 12:57:41;;;;;;;15.83;10.90;;;16.30;75.20;;;;;;5033449;28;21139;-66
2022/03/22 13:00:08;;;;;;;14.00;10.27;;;16.40;76.50;;;;;;5030225;28;20486;-71
2022/03/22 13:02:38;;;;;;;15.93;10.90;;;16.60;76.30;;;;;;5034474;28;20475;-71
2022/03/22 13:05:05;;;;;;;12.07;10.30;;;16.80;75.00;;;;;;5025791;28;20455;-69
2022/03/22 13:07:31;;;;;;;15.07;11.17;;;16.70;73.80;;;;;;5030853;28;20490;-71
2022/03/22 13:12:43;;;;;;;14.67;11.30;;;16.60;73.70;;;;;;5026633;28;20235;-70
2022/03/22 13:15:12;;;;;;;19.47;10.97;;;16.60;74.70;;;;;;5028236;28;20483;-72